Time;durP1;ratioP1;P1;durP2;ratioP2;P2;SDS_P1;SDS_P2;PMS_P1;PMS_P2;Temp;Humidity;BMP_temperature;BMP_pressure;BME280_temperature;BME280_humidity;BME280_pressure;Samples;Min_cycle;Max_cycle;Signal;HPM_P1;HPM_P2
2023/10/24 01:38:44;;;;;;;5.50;2.63;;;;;;;14.88;74.25;98610.75;6307235;22;20014;31
2023/10/24 01:41:10;;;;;;;5.63;2.30;;;;;;;14.87;74.32;98606.41;6272129;22;20020;-92
2023/10/24 01:43:35;;;;;;;5.95;2.20;;;;;;;15.07;74.05;98610.44;6276218;22;20425;-92
2023/10/24 01:46:00;;;;;;;12.15;3.47;;;;;;;14.77;74.08;98605.53;6274987;22;20464;-92
2023/10/24 01:48:26;;;;;;;6.55;2.30;;;;;;;15.15;73.49;98608.81;6274284;22;20075;-92
2023/10/24 01:50:51;;;;;;;3.97;2.33;;;;;;;15.02;73.91;98605.09;6271560;22;20011;-92
2023/10/24 01:53:16;;;;;;;4.65;2.40;;;;;;;14.94;73.65;98602.03;6271644;22;20007;-91
2023/10/24 01:55:42;;;;;;;5.10;2.15;;;;;;;15.05;73.62;98610.72;6271631;22;20015;-92
2023/10/24 01:58:07;;;;;;;4.40;2.10;;;;;;;15.04;73.75;98603.66;6271345;22;20496;-92
2023/10/24 02:00:32;;;;;;;4.28;2.22;;;;;;;15.17;73.40;98601.84;6271151;22;20594;-92
2023/10/24 02:02:58;;;;;;;6.82;2.45;;;;;;;15.01;73.44;98593.28;6271525;22;20012;-92
2023/10/24 02:05:23;;;;;;;4.45;1.70;;;;;;;15.26;73.16;98585.38;6271094;22;20004;-92
2023/10/24 02:07:49;;;;;;;3.30;1.50;;;;;;;15.20;73.08;98588.59;6271563;22;20117;-92
2023/10/24 02:10:14;;;;;;;7.63;3.05;;;;;;;15.18;73.35;98591.69;6271438;22;20031;-92
2023/10/24 02:12:39;;;;;;;5.47;1.90;;;;;;;15.16;73.20;98582.97;6271294;22;20060;-91
2023/10/24 02:15:05;;;;;;;6.10;1.85;;;;;;;15.23;73.05;98583.28;6273164;22;20019;-92
2023/10/24 02:17:30;;;;;;;4.57;2.05;;;;;;;15.26;72.85;98590.88;6270829;22;20012;-91
2023/10/24 02:19:56;;;;;;;9.25;2.53;;;;;;;15.13;73.52;98594.59;6271052;22;20015;-93
2023/10/24 02:22:21;;;;;;;6.20;1.97;;;;;;;15.08;73.29;98589.25;6271102;22;20069;-92
2023/10/24 02:24:46;;;;;;;4.97;1.52;;;;;;;15.10;73.85;98590.56;6271669;22;20224;-92
2023/10/24 02:27:12;;;;;;;5.47;2.22;;;;;;;15.04;73.38;98595.41;6271183;22;20381;-92
2023/10/24 02:29:37;;;;;;;4.18;1.38;;;;;;;15.17;73.01;98595.56;6271414;22;20086;-91
2023/10/24 02:32:03;;;;;;;5.20;2.22;;;;;;;15.03;73.45;98591.03;6271319;22;20200;-92
2023/10/24 02:34:28;;;;;;;7.55;2.08;;;;;;;14.93;73.64;98586.69;6271140;22;20426;-92
2023/10/24 02:36:54;;;;;;;5.72;2.15;;;;;;;15.13;72.74;98594.59;6270952;22;20025;-91
2023/10/24 02:39:20;;;;;;;6.40;2.10;;;;;;;15.09;73.58;98610.09;6270925;22;20015;-91
2023/10/24 02:41:46;;;;;;;5.95;1.52;;;;;;;15.09;73.78;98615.59;6271000;22;20039;-91
2023/10/24 02:44:11;;;;;;;6.18;2.05;;;;;;;15.23;72.98;98616.22;6271501;22;20061;-91
2023/10/24 02:46:36;;;;;;;8.48;2.10;;;;;;;15.05;73.15;98604.47;6271268;22;20398;-92
2023/10/24 02:49:02;;;;;;;4.25;1.70;;;;;;;15.03;73.72;98610.25;6271045;22;20011;-93
2023/10/24 02:51:27;;;;;;;5.57;2.25;;;;;;;15.17;73.20;98614.78;6268986;22;20019;-92
2023/10/24 02:53:52;;;;;;;5.13;1.55;;;;;;;15.00;73.36;98621.88;6271201;22;20027;-92
2023/10/24 02:56:17;;;;;;;2.83;1.57;;;;;;;15.15;73.15;98619.78;6271064;22;20008;-92
2023/10/24 02:58:43;;;;;;;3.92;1.30;;;;;;;15.02;73.84;98616.88;6270802;22;20283;-92
2023/10/24 03:01:08;;;;;;;3.90;1.30;;;;;;;15.04;73.70;98619.28;6271073;22;20046;-91
2023/10/24 03:03:33;;;;;;;4.03;1.85;;;;;;;15.10;73.07;98619.94;6270476;22;20034;-91
2023/10/24 03:05:59;;;;;;;5.88;1.92;;;;;;;15.21;72.88;98624.00;6270686;22;20011;-91
2023/10/24 03:08:24;;;;;;;3.45;1.83;;;;;;;15.14;73.05;98615.41;6269232;22;20030;-90
2023/10/24 03:10:50;;;;;;;9.43;1.92;;;;;;;14.93;73.43;98607.81;6269227;22;20018;-91
2023/10/24 03:13:15;;;;;;;2.88;1.58;;;;;;;15.12;73.32;98620.41;6270598;22;20004;-92
2023/10/24 03:15:41;;;;;;;3.90;1.83;;;;;;;15.23;72.96;98632.72;6270183;22;20000;-91
2023/10/24 03:18:06;;;;;;;8.18;2.70;;;;;;;15.06;73.62;98614.28;6270075;22;20443;-90
2023/10/24 03:20:32;;;;;;;4.57;1.63;;;;;;;14.95;73.91;98611.06;6269133;22;20016;-92
2023/10/24 03:22:57;;;;;;;4.88;1.95;;;;;;;15.10;73.97;98630.91;6269028;22;20328;-92
2023/10/24 17:42:53;;;;;;;11.63;4.65;;;;;;;13.67;75.38;98576.84;6316304;22;20075;-92
2023/10/24 17:45:18;;;;;;;9.50;4.53;;;;;;;13.57;75.98;98573.25;6332043;22;20453;-92
2023/10/24 17:47:44;;;;;;;16.25;9.52;;;;;;;13.69;75.62;98571.88;6332288;22;20003;-91
2023/10/24 17:50:09;;;;;;;34.05;21.65;;;;;;;13.78;74.95;98569.97;6332502;22;20010;-92
2023/10/24 17:52:34;;;;;;;11.35;5.07;;;;;;;13.63;76.24;98569.25;6333073;22;20007;-91
2023/10/24 17:55:00;;;;;;;9.57;4.97;;;;;;;13.67;75.43;98571.38;6332392;22;20003;-91
2023/10/24 17:57:25;;;;;;;7.35;4.30;;;;;;;13.81;75.28;98566.59;6332484;22;20018;-92
2023/10/24 17:59:51;;;;;;;11.40;6.55;;;;;;;13.86;75.11;98560.16;6333292;22;20010;-91
2023/10/24 18:02:17;;;;;;;9.40;4.65;;;;;;;13.77;74.69;98577.38;6336100;22;20068;-91
2023/10/24 18:04:42;;;;;;;8.65;5.40;;;;;;;13.73;74.95;98575.59;6337482;22;20017;-92
2023/10/24 18:07:07;;;;;;;9.65;5.03;;;;;;;13.56;75.43;98582.59;6307852;22;20085;-92
2023/10/24 18:09:32;;;;;;;10.68;6.35;;;;;;;13.73;75.05;98570.13;6333174;22;20101;-91
2023/10/24 18:12:00;;;;;;;11.07;5.72;;;;;;;13.84;75.14;98574.19;6332631;22;20428;-91
2023/10/24 18:14:26;;;;;;;11.15;6.10;;;;;;;13.82;74.75;98573.69;6304840;22;20011;-91
2023/10/24 18:16:51;;;;;;;9.45;6.30;;;;;;;13.74;74.93;98571.72;6331361;22;20453;-91
2023/10/24 18:19:16;;;;;;;9.60;4.70;;;;;;;13.63;75.51;98566.50;6330736;22;20087;-90
2023/10/24 18:21:42;;;;;;;9.70;5.78;;;;;;;13.65;75.04;98572.50;6332350;22;20094;-91
2023/10/24 18:24:09;;;;;;;12.65;5.32;;;;;;;13.69;75.15;98574.63;6332146;22;20057;-91
2023/10/24 18:26:34;;;;;;;10.98;6.75;;;;;;;13.71;74.87;98566.88;6333264;22;20006;-91
2023/10/24 18:28:59;;;;;;;10.15;6.10;;;;;;;13.69;74.81;98560.91;6333382;22;20036;-91
2023/10/24 18:31:25;;;;;;;13.50;6.07;;;;;;;13.50;75.20;98560.00;6333606;22;20034;-91
2023/10/24 18:33:50;;;;;;;12.90;5.55;;;;;;;13.46;75.63;98563.66;6334279;22;20065;-95
2023/10/24 20:15:24;;;;;;;5.35;2.22;;;;;;;13.59;75.12;98581.16;6306706;22;20062;-91
2023/10/24 20:17:52;;;;;;;5.00;2.30;;;;;;;13.65;74.54;98579.88;6301651;22;20015;-92
2023/10/24 20:20:18;;;;;;;4.88;2.03;;;;;;;13.65;74.55;98575.22;6273717;22;20039;-91
2023/10/24 20:22:43;;;;;;;7.07;3.72;;;;;;;13.58;74.42;98571.31;6301031;22;20065;-92
2023/10/24 20:25:09;;;;;;;6.60;3.67;;;;;;;13.54;74.59;98571.97;6301103;22;20314;-92
2023/10/24 20:27:38;;;;;;;7.80;2.92;;;;;;;13.65;73.69;98568.94;6275553;22;20433;-92
2023/10/24 20:30:07;;;;;;;6.10;2.90;;;;;;;13.72;74.00;98573.97;6306880;22;20056;-93
2023/10/24 20:32:34;;;;;;;5.82;2.30;;;;;;;13.70;73.87;98570.75;6304147;22;20006;-94
2023/10/24 20:35:00;;;;;;;5.32;2.40;;;;;;;13.71;73.69;98575.09;6274579;22;20017;-93
2023/10/24 20:37:26;;;;;;;13.30;3.30;;;;;;;13.72;73.40;98568.50;6273570;22;20106;-94
2023/10/24 20:39:52;;;;;;;10.05;3.78;;;;;;;13.52;73.84;98567.88;6300882;22;20031;-94
2023/10/24 20:42:19;;;;;;;8.38;2.90;;;;;;;13.51;74.29;98574.47;6300790;22;20007;-93
2023/10/24 20:44:48;;;;;;;8.55;2.60;;;;;;;13.63;74.27;98572.00;6300470;22;20003;-94
2023/10/24 20:47:14;;;;;;;5.10;2.55;;;;;;;13.70;74.05;98576.22;6301073;22;20038;-92
2023/10/24 20:49:40;;;;;;;9.30;3.08;;;;;;;13.55;74.01;98564.53;6301162;22;20011;-91
2023/10/24 20:52:06;;;;;;;11.73;3.30;;;;;;;13.65;73.39;98568.94;6300569;22;20221;-91
